sensor_id;sensor_type;location;lat;lon;timestamp;pressure;altitude;pressure_sealevel;temperature;humidity
74675;BME280;63200;48.810;12.352;2023-01-30T00:01:15;98088.06;;;-1.61;70.78
74675;BME280;63200;48.810;12.352;2023-01-30T00:03:41;98082.72;;;-1.61;70.57
74675;BME280;63200;48.810;12.352;2023-01-30T00:06:06;98066.94;;;-1.62;70.46
74675;BME280;63200;48.810;12.352;2023-01-30T00:08:32;98063.78;;;-1.73;70.14
74675;BME280;63200;48.810;12.352;2023-01-30T00:11:02;98059.09;;;-1.71;70.69
74675;BME280;63200;48.810;12.352;2023-01-30T00:13:28;98050.47;;;-1.73;70.80
74675;BME280;63200;48.810;12.352;2023-01-30T00:15:53;98039.22;;;-1.68;70.77
74675;BME280;63200;48.810;12.352;2023-01-30T00:18:18;98016.88;;;-1.74;70.54
74675;BME280;63200;48.810;12.352;2023-01-30T00:20:44;98026.38;;;-1.64;70.59
74675;BME280;63200;48.810;12.352;2023-01-30T00:23:09;98024.28;;;-1.69;70.65
74675;BME280;63200;48.810;12.352;2023-01-30T00:25:34;98025.75;;;-1.66;70.91
74675;BME280;63200;48.810;12.352;2023-01-30T00:28:00;98023.03;;;-1.73;70.49
74675;BME280;63200;48.810;12.352;2023-01-30T00:30:26;98023.41;;;-1.76;70.74
74675;BME280;63200;48.810;12.352;2023-01-30T00:32:55;98019.09;;;-1.77;71.51
74675;BME280;63200;48.810;12.352;2023-01-30T00:35:21;98021.38;;;-1.74;70.97
74675;BME280;63200;48.810;12.352;2023-01-30T00:37:46;97976.88;;;-2.09;71.01
74675;BME280;63200;48.810;12.352;2023-01-30T00:40:12;98019.03;;;-1.84;71.26
74675;BME280;63200;48.810;12.352;2023-01-30T00:42:37;98020.06;;;-1.85;71.70
74675;BME280;63200;48.810;12.352;2023-01-30T00:45:21;98020.69;;;-1.83;71.30
74675;BME280;63200;48.810;12.352;2023-01-30T00:48:05;97992.50;;;-1.99;71.70
74675;BME280;63200;48.810;12.352;2023-01-30T00:50:30;98009.47;;;-1.78;71.40
74675;BME280;63200;48.810;12.352;2023-01-30T00:53:08;98000.41;;;-1.84;71.78
74675;BME280;63200;48.810;12.352;2023-01-30T00:55:34;97993.06;;;-1.82;71.69
74675;BME280;63200;48.810;12.352;2023-01-30T00:57:59;97992.56;;;-1.71;71.70
74675;BME280;63200;48.810;12.352;2023-01-30T01:00:24;97986.97;;;-1.76;71.76
74675;BME280;63200;48.810;12.352;2023-01-30T01:02:49;97994.47;;;-1.86;71.10
74675;BME280;63200;48.810;12.352;2023-01-30T01:05:15;97984.00;;;-1.88;71.46
74675;BME280;63200;48.810;12.352;2023-01-30T01:07:40;97991.41;;;-1.83;71.46
74675;BME280;63200;48.810;12.352;2023-01-30T01:10:06;97989.69;;;-1.91;71.49
74675;BME280;63200;48.810;12.352;2023-01-30T01:12:31;97957.91;;;-1.99;71.60
74675;BME280;63200;48.810;12.352;2023-01-30T01:14:56;97949.81;;;-2.12;71.54
74675;BME280;63200;48.810;12.352;2023-01-30T01:17:22;97975.59;;;-1.91;71.86
74675;BME280;63200;48.810;12.352;2023-01-30T01:19:47;97953.34;;;-2.05;72.16
74675;BME280;63200;48.810;12.352;2023-01-30T01:22:12;97956.19;;;-2.07;72.12
74675;BME280;63200;48.810;12.352;2023-01-30T01:24:37;97966.41;;;-1.89;72.15
74675;BME280;63200;48.810;12.352;2023-01-30T01:27:03;97959.81;;;-1.93;71.90
74675;BME280;63200;48.810;12.352;2023-01-30T01:29:28;97960.19;;;-1.96;71.70
74675;BME280;63200;48.810;12.352;2023-01-30T01:31:56;97929.03;;;-2.24;72.03
74675;BME280;63200;48.810;12.352;2023-01-30T01:34:21;97956.69;;;-2.25;71.98
74675;BME280;63200;48.810;12.352;2023-01-30T01:36:48;97951.59;;;-2.41;72.42
74675;BME280;63200;48.810;12.352;2023-01-30T01:39:13;97956.72;;;-2.61;73.53
74675;BME280;63200;48.810;12.352;2023-01-30T01:41:39;97952.31;;;-2.69;73.74
74675;BME280;63200;48.810;12.352;2023-01-30T01:44:11;97946.41;;;-2.86;74.17
74675;BME280;63200;48.810;12.352;2023-01-30T01:49:14;97900.06;;;-3.20;74.42
74675;BME280;63200;48.810;12.352;2023-01-30T01:54:19;97946.22;;;-2.85;73.53
74675;BME280;63200;48.810;12.352;2023-01-30T01:56:47;97935.50;;;-2.91;74.13
74675;BME280;63200;48.810;12.352;2023-01-30T01:59:27;97913.09;;;-3.04;74.15
74675;BME280;63200;48.810;12.352;2023-01-30T02:02:00;97948.81;;;-2.91;74.48
74675;BME280;63200;48.810;12.352;2023-01-30T02:04:29;97946.34;;;-2.93;73.71
74675;BME280;63200;48.810;12.352;2023-01-30T02:07:16;97959.53;;;-2.99;73.73
74675;BME280;63200;48.810;12.352;2023-01-30T02:09:43;97962.31;;;-3.08;74.07
74675;BME280;63200;48.810;12.352;2023-01-30T02:12:10;97970.53;;;-3.18;74.69
74675;BME280;63200;48.810;12.352;2023-01-30T02:14:36;97982.63;;;-3.15;74.60
74675;BME280;63200;48.810;12.352;2023-01-30T02:17:01;97993.09;;;-3.13;74.84
74675;BME280;63200;48.810;12.352;2023-01-30T02:22:38;97992.25;;;-3.14;74.43
74675;BME280;63200;48.810;12.352;2023-01-30T02:25:31;97985.09;;;-2.98;73.79
74675;BME280;63200;48.810;12.352;2023-01-30T02:31:04;97984.56;;;-3.09;74.29
74675;BME280;63200;48.810;12.352;2023-01-30T02:39:18;97971.19;;;-3.45;74.68
74675;BME280;63200;48.810;12.352;2023-01-30T02:44:36;97963.59;;;-3.48;75.09
74675;BME280;63200;48.810;12.352;2023-01-30T02:47:09;97960.31;;;-3.50;74.74
74675;BME280;63200;48.810;12.352;2023-01-30T02:49:44;97970.00;;;-3.43;75.02
74675;BME280;63200;48.810;12.352;2023-01-30T02:52:11;97936.69;;;-3.60;75.20
74675;BME280;63200;48.810;12.352;2023-01-30T02:54:37;97956.28;;;-3.46;75.31
74675;BME280;63200;48.810;12.352;2023-01-30T02:57:03;97908.03;;;-3.65;75.79
74675;BME280;63200;48.810;12.352;2023-01-30T02:59:36;97945.00;;;-3.48;75.98
74675;BME280;63200;48.810;12.352;2023-01-30T03:05:20;97921.59;;;-3.45;75.74
74675;BME280;63200;48.810;12.352;2023-01-30T03:13:19;97891.81;;;-3.40;75.83
74675;BME280;63200;48.810;12.352;2023-01-30T03:15:57;97920.72;;;-3.15;75.66
74675;BME280;63200;48.810;12.352;2023-01-30T03:18:24;97879.75;;;-3.58;75.24
74675;BME280;63200;48.810;12.352;2023-01-30T03:20:49;97924.88;;;-3.28;75.72
74675;BME280;63200;48.810;12.352;2023-01-30T03:23:15;97927.69;;;-3.14;75.25
74675;BME280;63200;48.810;12.352;2023-01-30T03:25:42;97903.47;;;-3.05;75.19
74675;BME280;63200;48.810;12.352;2023-01-30T03:28:08;97891.78;;;-3.10;74.54
74675;BME280;63200;48.810;12.352;2023-01-30T03:30:34;97895.16;;;-3.02;74.41
74675;BME280;63200;48.810;12.352;2023-01-30T03:33:00;97900.72;;;-2.96;74.45
74675;BME280;63200;48.810;12.352;2023-01-30T03:35:25;97876.25;;;-2.92;74.14
74675;BME280;63200;48.810;12.352;2023-01-30T03:37:50;97869.53;;;-2.88;74.08
74675;BME280;63200;48.810;12.352;2023-01-30T03:40:16;97865.25;;;-2.89;74.02
74675;BME280;63200;48.810;12.352;2023-01-30T03:42:42;97819.81;;;-3.15;73.83
74675;BME280;63200;48.810;12.352;2023-01-30T03:45:08;97838.06;;;-2.91;73.51
74675;BME280;63200;48.810;12.352;2023-01-30T03:47:34;97835.66;;;-2.86;73.85
74675;BME280;63200;48.810;12.352;2023-01-30T03:49:59;97838.94;;;-2.83;73.96
74675;BME280;63200;48.810;12.352;2023-01-30T03:52:25;97847.75;;;-2.83;73.32
74675;BME280;63200;48.810;12.352;2023-01-30T03:54:50;97841.09;;;-2.72;73.10
74675;BME280;63200;48.810;12.352;2023-01-30T03:57:16;97864.94;;;-2.79;73.41
74675;BME280;63200;48.810;12.352;2023-01-30T03:59:41;97892.72;;;-2.81;73.50
74675;BME280;63200;48.810;12.352;2023-01-30T04:02:06;97903.16;;;-2.80;73.34
74675;BME280;63200;48.810;12.352;2023-01-30T04:04:33;97884.34;;;-2.78;73.10
74675;BME280;63200;48.810;12.352;2023-01-30T04:06:58;97883.16;;;-2.76;73.23
74675;BME280;63200;48.810;12.352;2023-01-30T04:09:24;97888.66;;;-2.77;73.69
74675;BME280;63200;48.810;12.352;2023-01-30T04:11:49;97889.75;;;-2.72;73.63
74675;BME280;63200;48.810;12.352;2023-01-30T04:14:14;97876.25;;;-2.70;72.79
74675;BME280;63200;48.810;12.352;2023-01-30T04:16:41;97876.50;;;-2.65;73.24
74675;BME280;63200;48.810;12.352;2023-01-30T04:19:06;97825.91;;;-2.78;72.30
74675;BME280;63200;48.810;12.352;2023-01-30T04:21:31;97849.38;;;-2.60;72.70
74675;BME280;63200;48.810;12.352;2023-01-30T04:23:57;97845.50;;;-2.58;72.28
74675;BME280;63200;48.810;12.352;2023-01-30T04:26:22;97817.38;;;-2.74;72.38
74675;BME280;63200;48.810;12.352;2023-01-30T04:28:47;97784.03;;;-2.76;72.88
74675;BME280;63200;48.810;12.352;2023-01-30T04:31:13;97778.22;;;-2.87;72.32
74675;BME280;63200;48.810;12.352;2023-01-30T04:33:39;97775.84;;;-2.75;72.65
74675;BME280;63200;48.810;12.352;2023-01-30T04:36:05;97797.91;;;-2.53;72.24
74675;BME280;63200;48.810;12.352;2023-01-30T04:38:31;97796.63;;;-2.57;72.24
74675;BME280;63200;48.810;12.352;2023-01-30T04:40:57;97793.34;;;-2.59;72.19
74675;BME280;63200;48.810;12.352;2023-01-30T04:43:24;97808.06;;;-2.63;72.56
74675;BME280;63200;48.810;12.352;2023-01-30T04:45:50;97804.84;;;-2.80;72.54
74675;BME280;63200;48.810;12.352;2023-01-30T04:48:17;97797.19;;;-2.90;72.88
74675;BME280;63200;48.810;12.352;2023-01-30T04:50:45;97791.09;;;-2.83;73.73
74675;BME280;63200;48.810;12.352;2023-01-30T04:53:11;97798.75;;;-2.95;73.23
74675;BME280;63200;48.810;12.352;2023-01-30T04:55:36;97746.19;;;-3.22;73.42
74675;BME280;63200;48.810;12.352;2023-01-30T04:58:02;97747.78;;;-3.27;73.45
74675;BME280;63200;48.810;12.352;2023-01-30T05:00:27;97783.41;;;-3.00;74.58
74675;BME280;63200;48.810;12.352;2023-01-30T05:02:53;97790.09;;;-3.04;74.38
74675;BME280;63200;48.810;12.352;2023-01-30T05:05:21;97781.09;;;-3.03;74.02
74675;BME280;63200;48.810;12.352;2023-01-30T05:07:46;97757.06;;;-3.16;73.97
74675;BME280;63200;48.810;12.352;2023-01-30T05:10:12;97777.31;;;-2.94;73.31
74675;BME280;63200;48.810;12.352;2023-01-30T05:12:37;97768.69;;;-3.18;73.32
74675;BME280;63200;48.810;12.352;2023-01-30T05:15:02;97779.47;;;-3.04;73.42
74675;BME280;63200;48.810;12.352;2023-01-30T05:17:28;97794.09;;;-2.93;73.52
74675;BME280;63200;48.810;12.352;2023-01-30T05:19:53;97790.47;;;-3.07;73.31
74675;BME280;63200;48.810;12.352;2023-01-30T05:22:18;97768.41;;;-3.08;73.74
74675;BME280;63200;48.810;12.352;2023-01-30T05:24:44;97773.03;;;-2.95;73.66
74675;BME280;63200;48.810;12.352;2023-01-30T05:27:09;97764.81;;;-3.00;73.76
74675;BME280;63200;48.810;12.352;2023-01-30T05:29:34;97761.91;;;-3.05;74.44
74675;BME280;63200;48.810;12.352;2023-01-30T05:32:00;97726.81;;;-3.22;74.08
74675;BME280;63200;48.810;12.352;2023-01-30T05:34:25;97753.72;;;-3.04;74.11
74675;BME280;63200;48.810;12.352;2023-01-30T05:36:51;97741.16;;;-3.16;74.24
74675;BME280;63200;48.810;12.352;2023-01-30T05:39:16;97759.16;;;-2.90;73.76
74675;BME280;63200;48.810;12.352;2023-01-30T05:41:41;97740.66;;;-2.77;73.82
74675;BME280;63200;48.810;12.352;2023-01-30T05:44:07;97748.06;;;-2.72;73.44
74675;BME280;63200;48.810;12.352;2023-01-30T05:46:32;97726.84;;;-2.94;73.56
74675;BME280;63200;48.810;12.352;2023-01-30T05:48:57;97747.63;;;-2.76;73.87
74675;BME280;63200;48.810;12.352;2023-01-30T05:51:24;97747.06;;;-2.71;73.15
74675;BME280;63200;48.810;12.352;2023-01-30T05:53:51;97748.31;;;-2.67;73.25
74675;BME280;63200;48.810;12.352;2023-01-30T05:56:17;97723.66;;;-2.82;72.29
74675;BME280;63200;48.810;12.352;2023-01-30T05:58:43;97751.22;;;-2.62;72.75
74675;BME280;63200;48.810;12.352;2023-01-30T06:01:11;97755.94;;;-2.57;72.54
74675;BME280;63200;48.810;12.352;2023-01-30T06:03:36;97748.00;;;-2.51;72.85
74675;BME280;63200;48.810;12.352;2023-01-30T06:06:03;97700.28;;;-2.65;71.74
74675;BME280;63200;48.810;12.352;2023-01-30T06:08:29;97743.16;;;-2.47;72.06
74675;BME280;63200;48.810;12.352;2023-01-30T06:10:59;97738.06;;;-2.42;72.13
74675;BME280;63200;48.810;12.352;2023-01-30T06:13:25;97726.63;;;-2.36;71.73
74675;BME280;63200;48.810;12.352;2023-01-30T06:15:51;97732.81;;;-2.28;71.65
74675;BME280;63200;48.810;12.352;2023-01-30T06:18:16;97728.97;;;-2.26;71.66
74675;BME280;63200;48.810;12.352;2023-01-30T06:20:46;97724.78;;;-2.42;72.84
74675;BME280;63200;48.810;12.352;2023-01-30T06:23:12;97729.94;;;-2.33;72.91
74675;BME280;63200;48.810;12.352;2023-01-30T06:25:38;97734.81;;;-2.37;71.91
74675;BME280;63200;48.810;12.352;2023-01-30T06:28:06;97739.06;;;-2.43;72.53
74675;BME280;63200;48.810;12.352;2023-01-30T06:30:31;97731.94;;;-2.36;72.38
74675;BME280;63200;48.810;12.352;2023-01-30T06:32:57;97735.66;;;-2.37;71.90
74675;BME280;63200;48.810;12.352;2023-01-30T06:35:22;97753.63;;;-2.39;72.46
74675;BME280;63200;48.810;12.352;2023-01-30T06:37:47;97750.97;;;-2.39;71.74
74675;BME280;63200;48.810;12.352;2023-01-30T06:40:13;97744.88;;;-2.32;71.71
74675;BME280;63200;48.810;12.352;2023-01-30T06:42:43;97747.16;;;-2.23;71.07
74675;BME280;63200;48.810;12.352;2023-01-30T06:45:09;97728.22;;;-2.13;71.05
74675;BME280;63200;48.810;12.352;2023-01-30T06:47:43;97724.13;;;-2.09;70.79
74675;BME280;63200;48.810;12.352;2023-01-30T06:50:09;97732.31;;;-2.10;70.49
74675;BME280;63200;48.810;12.352;2023-01-30T06:52:39;97724.16;;;-2.02;70.14
74675;BME280;63200;48.810;12.352;2023-01-30T06:55:05;97718.38;;;-2.12;70.29
74675;BME280;63200;48.810;12.352;2023-01-30T06:57:30;97711.84;;;-2.10;70.72
74675;BME280;63200;48.810;12.352;2023-01-30T06:59:56;97712.06;;;-2.11;69.68
74675;BME280;63200;48.810;12.352;2023-01-30T07:02:21;97704.31;;;-2.06;69.27
74675;BME280;63200;48.810;12.352;2023-01-30T07:04:46;97710.88;;;-2.02;69.51
74675;BME280;63200;48.810;12.352;2023-01-30T07:07:12;97672.66;;;-2.29;69.07
74675;BME280;63200;48.810;12.352;2023-01-30T07:09:37;97703.91;;;-2.03;69.06
74675;BME280;63200;48.810;12.352;2023-01-30T07:12:02;97704.59;;;-1.88;69.05
74675;BME280;63200;48.810;12.352;2023-01-30T07:14:28;97696.81;;;-1.82;68.64
74675;BME280;63200;48.810;12.352;2023-01-30T07:16:53;97698.19;;;-1.93;68.86
74675;BME280;63200;48.810;12.352;2023-01-30T07:19:18;97693.91;;;-1.94;68.83
74675;BME280;63200;48.810;12.352;2023-01-30T07:21:43;97708.84;;;-1.93;68.66
74675;BME280;63200;48.810;12.352;2023-01-30T07:24:09;97707.41;;;-1.89;68.22
74675;BME280;63200;48.810;12.352;2023-01-30T07:26:34;97701.09;;;-1.81;68.01
74675;BME280;63200;48.810;12.352;2023-01-30T07:29:00;97712.25;;;-1.44;67.57
74675;BME280;63200;48.810;12.352;2023-01-30T07:31:25;97700.03;;;-0.72;65.76
74675;BME280;63200;48.810;12.352;2023-01-30T07:33:50;97707.63;;;-0.82;65.04
74675;BME280;63200;48.810;12.352;2023-01-30T07:36:16;97702.69;;;-1.39;67.44
74675;BME280;63200;48.810;12.352;2023-01-30T07:38:41;97690.16;;;-1.45;67.56
74675;BME280;63200;48.810;12.352;2023-01-30T07:41:06;97683.16;;;-1.53;67.51
74675;BME280;63200;48.810;12.352;2023-01-30T07:43:32;97669.84;;;-1.53;67.49
74675;BME280;63200;48.810;12.352;2023-01-30T07:45:59;97672.31;;;-1.51;68.29
74675;BME280;63200;48.810;12.352;2023-01-30T07:48:24;97672.94;;;-1.56;67.48
74675;BME280;63200;48.810;12.352;2023-01-30T07:50:49;97677.25;;;-1.48;67.49
74675;BME280;63200;48.810;12.352;2023-01-30T07:53:16;97673.59;;;-1.40;67.43
74675;BME280;63200;48.810;12.352;2023-01-30T07:55:44;97652.06;;;-1.45;67.79
74675;BME280;63200;48.810;12.352;2023-01-30T07:58:12;97673.59;;;-1.33;67.61
74675;BME280;63200;48.810;12.352;2023-01-30T08:00:38;97667.22;;;-1.32;67.33
74675;BME280;63200;48.810;12.352;2023-01-30T08:03:03;97682.19;;;-1.25;66.62
74675;BME280;63200;48.810;12.352;2023-01-30T08:05:29;97684.84;;;-1.11;66.71
74675;BME280;63200;48.810;12.352;2023-01-30T08:07:55;97681.59;;;-1.13;66.43
74675;BME280;63200;48.810;12.352;2023-01-30T08:10:20;97667.84;;;-1.10;66.05
74675;BME280;63200;48.810;12.352;2023-01-30T08:12:48;97661.09;;;-1.06;66.75
74675;BME280;63200;48.810;12.352;2023-01-30T08:15:14;97663.75;;;-0.99;66.69
74675;BME280;63200;48.810;12.352;2023-01-30T08:17:39;97662.94;;;-0.93;66.23
74675;BME280;63200;48.810;12.352;2023-01-30T08:20:05;97674.00;;;-0.90;65.73
74675;BME280;63200;48.810;12.352;2023-01-30T08:22:30;97660.47;;;-0.88;65.57
74675;BME280;63200;48.810;12.352;2023-01-30T08:24:56;97641.19;;;-0.97;66.15
74675;BME280;63200;48.810;12.352;2023-01-30T08:27:21;97668.88;;;-0.85;66.10
74675;BME280;63200;48.810;12.352;2023-01-30T08:29:46;97683.63;;;-0.75;66.55
74675;BME280;63200;48.810;12.352;2023-01-30T08:32:12;97671.13;;;-0.81;65.51
74675;BME280;63200;48.810;12.352;2023-01-30T08:34:37;97679.31;;;-0.70;65.99
74675;BME280;63200;48.810;12.352;2023-01-30T08:37:02;97642.03;;;-0.83;65.59
74675;BME280;63200;48.810;12.352;2023-01-30T08:39:28;97655.13;;;-0.68;65.16
74675;BME280;63200;48.810;12.352;2023-01-30T08:41:53;97646.69;;;-0.65;65.20
74675;BME280;63200;48.810;12.352;2023-01-30T08:44:18;97610.25;;;-0.85;65.13
74675;BME280;63200;48.810;12.352;2023-01-30T08:46:44;97621.09;;;-0.73;65.13
74675;BME280;63200;48.810;12.352;2023-01-30T08:49:09;97638.69;;;-0.52;65.13
74675;BME280;63200;48.810;12.352;2023-01-30T08:51:35;97655.47;;;-0.44;64.70
74675;BME280;63200;48.810;12.352;2023-01-30T08:54:00;97654.25;;;-0.42;65.01
74675;BME280;63200;48.810;12.352;2023-01-30T08:56:25;97625.72;;;-0.48;65.50
74675;BME280;63200;48.810;12.352;2023-01-30T08:58:51;97646.22;;;-0.35;65.41
74675;BME280;63200;48.810;12.352;2023-01-30T09:01:16;97633.28;;;-0.31;65.07
74675;BME280;63200;48.810;12.352;2023-01-30T09:03:42;97638.50;;;-0.05;64.64
74675;BME280;63200;48.810;12.352;2023-01-30T09:06:07;97638.69;;;0.01;64.92
74675;BME280;63200;48.810;12.352;2023-01-30T09:08:33;97640.97;;;-0.03;65.21
74675;BME280;63200;48.810;12.352;2023-01-30T09:11:00;97607.69;;;-0.01;64.99
74675;BME280;63200;48.810;12.352;2023-01-30T09:13:26;97612.59;;;0.03;64.85
74675;BME280;63200;48.810;12.352;2023-01-30T09:15:52;97603.84;;;0.27;65.40
74675;BME280;63200;48.810;12.352;2023-01-30T09:18:17;97618.78;;;0.35;64.46
74675;BME280;63200;48.810;12.352;2023-01-30T09:20:42;97591.94;;;0.23;65.00
74675;BME280;63200;48.810;12.352;2023-01-30T09:23:08;97585.09;;;0.34;64.54
74675;BME280;63200;48.810;12.352;2023-01-30T09:25:33;97570.09;;;0.33;65.45
74675;BME280;63200;48.810;12.352;2023-01-30T09:27:58;97544.50;;;0.25;65.19
74675;BME280;63200;48.810;12.352;2023-01-30T09:30:24;97552.66;;;0.30;65.39
74675;BME280;63200;48.810;12.352;2023-01-30T09:32:49;97558.31;;;1.54;63.29
74675;BME280;63200;48.810;12.352;2023-01-30T09:35:15;97558.38;;;1.47;63.11
74675;BME280;63200;48.810;12.352;2023-01-30T09:37:50;97552.19;;;1.46;63.12
74675;BME280;63200;48.810;12.352;2023-01-30T09:40:21;97556.81;;;1.58;62.66
74675;BME280;63200;48.810;12.352;2023-01-30T09:43:58;97544.91;;;1.72;62.91
74675;BME280;63200;48.810;12.352;2023-01-30T09:46:10;97550.78;;;1.07;64.04
74675;BME280;63200;48.810;12.352;2023-01-30T09:48:53;97556.66;;;1.53;62.76
74675;BME280;63200;48.810;12.352;2023-01-30T09:51:42;97506.34;;;2.04;60.41
74675;BME280;63200;48.810;12.352;2023-01-30T09:56:39;97545.34;;;3.48;59.14
74675;BME280;63200;48.810;12.352;2023-01-30T09:59:04;97529.31;;;2.89;59.18
74675;BME280;63200;48.810;12.352;2023-01-30T10:04:28;97526.34;;;1.89;62.05
74675;BME280;63200;48.810;12.352;2023-01-30T10:07:14;97526.03;;;1.97;62.37
74675;BME280;63200;48.810;12.352;2023-01-30T10:12:35;97530.25;;;2.05;62.70
74675;BME280;63200;48.810;12.352;2023-01-30T10:15:24;97515.84;;;1.57;63.28
74675;BME280;63200;48.810;12.352;2023-01-30T10:26:07;97509.38;;;1.46;65.01
74675;BME280;63200;48.810;12.352;2023-01-30T10:28:38;97498.84;;;1.33;64.80
74675;BME280;63200;48.810;12.352;2023-01-30T10:31:11;97514.03;;;1.39;65.73
74675;BME280;63200;48.810;12.352;2023-01-30T10:33:42;97508.06;;;1.37;65.39
74675;BME280;63200;48.810;12.352;2023-01-30T10:36:22;97507.28;;;1.18;65.38
74675;BME280;63200;48.810;12.352;2023-01-30T10:38:51;97465.69;;;1.04;66.64
74675;BME280;63200;48.810;12.352;2023-01-30T10:57:21;97501.59;;;0.89;68.68
74675;BME280;63200;48.810;12.352;2023-01-30T11:02:23;97488.78;;;0.79;70.82
74675;BME280;63200;48.810;12.352;2023-01-30T11:05:02;97485.31;;;0.72;71.25
74675;BME280;63200;48.810;12.352;2023-01-30T11:07:30;97449.47;;;0.61;70.73
74675;BME280;63200;48.810;12.352;2023-01-30T11:09:57;97462.03;;;0.79;70.56
74675;BME280;63200;48.810;12.352;2023-01-30T11:12:23;97458.53;;;0.97;69.00
74675;BME280;63200;48.810;12.352;2023-01-30T11:15:06;97453.72;;;1.06;67.87
74675;BME280;63200;48.810;12.352;2023-01-30T11:17:34;97448.88;;;1.15;67.80
74675;BME280;63200;48.810;12.352;2023-01-30T11:20:21;97440.19;;;1.20;67.20
74675;BME280;63200;48.810;12.352;2023-01-30T11:23:04;97432.06;;;1.26;66.89
74675;BME280;63200;48.810;12.352;2023-01-30T11:25:30;97444.31;;;1.34;67.15
74675;BME280;63200;48.810;12.352;2023-01-30T11:28:01;97454.09;;;1.40;66.59
74675;BME280;63200;48.810;12.352;2023-01-30T11:30:37;97449.34;;;1.42;66.98
74675;BME280;63200;48.810;12.352;2023-01-30T11:33:11;97415.16;;;1.14;66.08
74675;BME280;63200;48.810;12.352;2023-01-30T11:35:53;97421.63;;;1.25;66.44
74675;BME280;63200;48.810;12.352;2023-01-30T11:38:28;97443.88;;;1.37;66.81
74675;BME280;63200;48.810;12.352;2023-01-30T11:43:38;97447.91;;;1.28;67.65
74675;BME280;63200;48.810;12.352;2023-01-30T11:46:11;97439.72;;;1.23;67.63
74675;BME280;63200;48.810;12.352;2023-01-30T11:48:54;97432.41;;;1.18;68.02
74675;BME280;63200;48.810;12.352;2023-01-30T11:51:23;97428.00;;;1.24;68.17
74675;BME280;63200;48.810;12.352;2023-01-30T11:56:37;97430.28;;;1.20;67.83
74675;BME280;63200;48.810;12.352;2023-01-30T12:01:47;97419.13;;;1.11;69.29
74675;BME280;63200;48.810;12.352;2023-01-30T12:04:13;97390.22;;;1.02;69.59
74675;BME280;63200;48.810;12.352;2023-01-30T12:06:40;97408.19;;;1.13;68.85
74675;BME280;63200;48.810;12.352;2023-01-30T12:09:44;97404.81;;;1.17;69.92
74675;BME280;63200;48.810;12.352;2023-01-30T12:18:19;97411.34;;;1.22;69.85
74675;BME280;63200;48.810;12.352;2023-01-30T12:20:51;97386.72;;;1.20;70.00
74675;BME280;63200;48.810;12.352;2023-01-30T12:31:41;97397.22;;;1.33;69.89
74675;BME280;63200;48.810;12.352;2023-01-30T12:34:08;97389.94;;;1.22;70.85
74675;BME280;63200;48.810;12.352;2023-01-30T12:36:51;97397.03;;;1.16;72.30
74675;BME280;63200;48.810;12.352;2023-01-30T12:56:15;97399.47;;;0.25;78.22
74675;BME280;63200;48.810;12.352;2023-01-30T13:01:19;97396.09;;;0.36;79.27
74675;BME280;63200;48.810;12.352;2023-01-30T13:09:17;97406.41;;;0.32;79.57
74675;BME280;63200;48.810;12.352;2023-01-30T13:12:12;97403.78;;;0.26;79.30
74675;BME280;63200;48.810;12.352;2023-01-30T13:14:50;97397.34;;;0.33;79.99
74675;BME280;63200;48.810;12.352;2023-01-30T13:20:24;97401.31;;;0.49;78.85
74675;BME280;63200;48.810;12.352;2023-01-30T13:23:03;97413.41;;;0.52;78.58
74675;BME280;63200;48.810;12.352;2023-01-30T13:25:37;97369.31;;;0.24;78.48
74675;BME280;63200;48.810;12.352;2023-01-30T13:28:13;97387.31;;;0.29;78.33
74675;BME280;63200;48.810;12.352;2023-01-30T13:30:41;97429.66;;;0.51;79.17
74675;BME280;63200;48.810;12.352;2023-01-30T13:33:14;97429.72;;;0.44;78.46
74675;BME280;63200;48.810;12.352;2023-01-30T13:35:50;97418.66;;;0.40;79.31
74675;BME280;63200;48.810;12.352;2023-01-30T13:38:24;97436.81;;;0.31;79.69
74675;BME280;63200;48.810;12.352;2023-01-30T13:40:53;97433.72;;;0.35;79.61
74675;BME280;63200;48.810;12.352;2023-01-30T13:43:24;97441.28;;;0.38;79.82
74675;BME280;63200;48.810;12.352;2023-01-30T13:45:54;97437.94;;;0.42;78.95
74675;BME280;63200;48.810;12.352;2023-01-30T13:53:46;97413.50;;;0.20;79.43
74675;BME280;63200;48.810;12.352;2023-01-30T13:56:36;97453.31;;;0.47;79.30
74675;BME280;63200;48.810;12.352;2023-01-30T14:07:24;97456.47;;;0.62;78.46
74675;BME280;63200;48.810;12.352;2023-01-30T14:18:05;97440.91;;;0.53;78.03
74675;BME280;63200;48.810;12.352;2023-01-30T14:20:32;97437.22;;;0.72;78.68
74675;BME280;63200;48.810;12.352;2023-01-30T14:23:00;97431.00;;;0.60;78.38
74675;BME280;63200;48.810;12.352;2023-01-30T14:30:45;97451.72;;;0.83;77.37
74675;BME280;63200;48.810;12.352;2023-01-30T14:38:22;97453.25;;;0.72;78.25
74675;BME280;63200;48.810;12.352;2023-01-30T14:48:53;97450.28;;;0.80;78.21
74675;BME280;63200;48.810;12.352;2023-01-30T14:51:32;97450.13;;;0.75;78.21
74675;BME280;63200;48.810;12.352;2023-01-30T14:56:37;97449.72;;;0.78;77.84
74675;BME280;63200;48.810;12.352;2023-01-30T14:59:10;97469.00;;;0.80;77.54
74675;BME280;63200;48.810;12.352;2023-01-30T15:04:32;97492.03;;;0.81;77.89
74675;BME280;63200;48.810;12.352;2023-01-30T15:06:59;97487.47;;;0.82;77.46
74675;BME280;63200;48.810;12.352;2023-01-30T15:09:29;97510.28;;;0.85;77.39
74675;BME280;63200;48.810;12.352;2023-01-30T15:14:50;97515.34;;;0.93;77.34
74675;BME280;63200;48.810;12.352;2023-01-30T15:22:51;97529.84;;;1.04;76.87
74675;BME280;63200;48.810;12.352;2023-01-30T15:25:29;97519.94;;;1.04;76.67
74675;BME280;63200;48.810;12.352;2023-01-30T15:30:39;97525.53;;;1.03;76.46
74675;BME280;63200;48.810;12.352;2023-01-30T15:33:19;97521.03;;;0.78;76.90
74675;BME280;63200;48.810;12.352;2023-01-30T15:35:45;97552.25;;;1.03;76.34
74675;BME280;63200;48.810;12.352;2023-01-30T15:38:36;97550.69;;;0.95;77.26
74675;BME280;63200;48.810;12.352;2023-01-30T15:41:03;97572.47;;;0.98;77.18
74675;BME280;63200;48.810;12.352;2023-01-30T15:44:17;97575.72;;;1.00;77.12
74675;BME280;63200;48.810;12.352;2023-01-30T15:52:38;97579.28;;;0.94;77.24
74675;BME280;63200;48.810;12.352;2023-01-30T15:55:15;97582.34;;;0.98;76.87
74675;BME280;63200;48.810;12.352;2023-01-30T15:57:46;97508.31;;;0.55;76.70